This is the latest recevied weather packets stored in our database for station/object KE0TNI-13. If no packets are shown the sender has not sent any weather packets the latest 1 day(s).
| Time | Temp. | Humidity | Pressure | Rain* | Wind** | Luminosity | Snow |
|---|---|---|---|---|---|---|---|
| 1778022281 | -1.11° C | 97% | 1012.2 hPa | 0 mm | 0 m/s | 30 W/m² | - |
| 1778021977 | -1.67° C | 97% | 1012.1 hPa | 0 mm | 0.45 m/s, 105° | 22 W/m² | - |
| 1778021674 | -1.67° C | 96% | 1012.4 hPa | 0 mm | 0 m/s | 17 W/m² | - |
| 1778021370 | -1.67° C | 96% | 1011.9 hPa | 0 mm | 0 m/s | 12 W/m² | - |
| 1778021067 | -1.67° C | 96% | 1012.2 hPa | 0 mm | 0 m/s | 8 W/m² | - |
| 1778020764 | -1.67° C | 96% | 1012.3 hPa | 0 mm | 0 m/s | 6 W/m² | - |
| 1778020461 | -1.67° C | 96% | 1012.4 hPa | 0 mm | 0 m/s | 5 W/m² | - |
| 1778020158 | -1.67° C | 96% | 1013 hPa | 0 mm | 0.45 m/s, 106° | 4 W/m² | - |
| 1778019854 | -1.11° C | 96% | 1012.4 hPa | 0 mm | 0.89 m/s, 264° | 5 W/m² | - |
| 1778019550 | -1.11° C | 96% | 1012.2 hPa | 0 mm | 0 m/s | 12 W/m² | - |
| 1778019248 | -1.11° C | 96% | 1012.1 hPa | 0 mm | 0.89 m/s, 88° | 21 W/m² | - |
| 1778018944 | -1.67° C | 96% | 1011.9 hPa | 0 mm | 0 m/s | 20 W/m² | - |
| 1778018641 | -1.11° C | 96% | 1012.1 hPa | 0.51 mm | 0.89 m/s, 107° | 12 W/m² | - |
| 1778018339 | -1.11° C | 96% | 1012.2 hPa | 0.51 mm | 0 m/s | 10 W/m² | - |
| 1778018037 | -1.11° C | 96% | 1012.2 hPa | 0 mm | 0.45 m/s, 278° | 23 W/m² | - |
| 1778017735 | -1.11° C | 96% | 1012.3 hPa | 0 mm | 0 m/s | 33 W/m² | - |
| 1778017432 | -1.11° C | 96% | 1012.2 hPa | 0 mm | 0 m/s | 36 W/m² | - |
| 1778017129 | -1.11° C | 96% | 1012.1 hPa | 1.27 mm | 0.89 m/s, 169° | 55 W/m² | - |
| 1778016827 | -1.11° C | 96% | 1012.4 hPa | 0.51 mm | 0.45 m/s, 93° | 78 W/m² | - |
| 1778016522 | -1.11° C | 96% | 1012.6 hPa | 0 mm | 0.89 m/s, 155° | 73 W/m² | - |
| 1778016220 | -1.11° C | 96% | 1012.4 hPa | 0 mm | 0.89 m/s, 174° | 78 W/m² | - |
| 1778015916 | -1.11° C | 96% | 1013 hPa | 0.51 mm | 0 m/s | 115 W/m² | - |
| 1778015614 | -1.11° C | 96% | 1012.7 hPa | 0.51 mm | 0 m/s | 70 W/m² | - |
| 1778015310 | -1.11° C | 96% | 1012.7 hPa | 0.51 mm | 0 m/s | 97 W/m² | - |
| 1778015007 | -1.11° C | 96% | 1013 hPa | 0.51 mm | 0 m/s | 125 W/m² | - |
* Rain latest hour (hover to see other rain measurements)
** Current wind speed in m/s (hover to see current wind gust speed)